Aeroporto :
LOGIN :

Iscrizione | Disclaimer

   EN    FR    IT 

 










Sommario :    VFR   VFR Marginale   IFR   IFR Intensivo   IFR Molto Intensivo
Visibilità : 
Base nubi : 
>= 8 km
>= 3000ft
5 / 8 km
1000 / 3000 ft
1500m / 5 km
500 / 1000 ft
800 / 1500m
200 / 500 ft
< 800m
< 200 ft
Simboli :   Temporali  Nebbia  Neve Forte  Precipitazioni Forti  Vento > 20 kt
SIGMETs :   Varie  Temporali  Ghiacco  Turbolenza  Onda orograficha  Ceneri Vulcaniche






- Altitudine del aeroporto : 392 ft
- Codice IATA : CDG


LFPG - Paris-Aeroport Charles De Gaulle

ULTIMO METAR :
  • 101330Z AUTO 04006KT 010V080 CAVOK 24/06 Q1022 NOSIG

METARs OBSOLETI :
  • 101300Z AUTO 07005KT 040V110 CAVOK 24/04 Q1022 NOSIG
  • 101230Z AUTO 06005KT 330V130 CAVOK 23/05 Q1023 NOSIG
  • 101200Z AUTO 08006KT 040V120 CAVOK 23/07 Q1023 NOSIG
  • 101130Z AUTO 07005KT 040V110 CAVOK 23/09 Q1023 NOSIG
  • 101100Z AUTO 06005KT 020V120 CAVOK 22/08 Q1024 NOSIG
  • 101030Z AUTO 07003KT 020V130 CAVOK 21/09 Q1024 NOSIG

TAF TAF LFPG
Valido dal 10 a 12 ore il 11 a 18 ore UTC


101100Z 1012/1118 09005KT CAVOK TX25/1015Z TN10/1106Z
ATIS : +33 1 48 62 10 92



MetMap, La meteo Aeronautica in un colpo d'occhio ! - Copyright ORBIFLY Dicembre 2007 - Disclaimer

ORBIFLY MET'MAP TEAM :

Programmazione e sviluppo : Alexandra Zaïnal
Concezione : Baudouin d'Aumeries
Aiuto per la programmazione : Marc-Olivier Méhu
Supporto tecnico e logistico : Manuel Goepfert
Aiuto per la traduzione : Arnaldo La Scala

Contatto : metmap@orbifly.com




FONTI E CREDITI :

   NOAA